sensor_id;sensor_type;location;lat;lon;timestamp;temperature;humidity
9564;DHT22;4820;50.870;4.702;2022-09-29T00:00:12;8.00;99.90
9564;DHT22;4820;50.870;4.702;2022-09-29T00:02:38;8.00;99.90
9564;DHT22;4820;50.870;4.702;2022-09-29T00:05:04;7.90;99.90
9564;DHT22;4820;50.870;4.702;2022-09-29T00:07:30;7.80;99.90
9564;DHT22;4820;50.870;4.702;2022-09-29T00:09:59;7.80;99.90
9564;DHT22;4820;50.870;4.702;2022-09-29T00:12:26;7.80;99.90
9564;DHT22;4820;50.870;4.702;2022-09-29T00:14:53;7.80;99.90
9564;DHT22;4820;50.870;4.702;2022-09-29T00:17:19;7.70;99.90
9564;DHT22;4820;50.870;4.702;2022-09-29T00:19:44;7.60;99.90
9564;DHT22;4820;50.870;4.702;2022-09-29T00:22:10;7.60;99.90
9564;DHT22;4820;50.870;4.702;2022-09-29T00:24:36;7.60;99.90
9564;DHT22;4820;50.870;4.702;2022-09-29T00:27:01;7.60;99.90
9564;DHT22;4820;50.870;4.702;2022-09-29T00:29:27;7.70;99.90
9564;DHT22;4820;50.870;4.702;2022-09-29T00:31:53;7.60;99.90
9564;DHT22;4820;50.870;4.702;2022-09-29T00:34:19;7.70;99.90
9564;DHT22;4820;50.870;4.702;2022-09-29T00:36:44;7.70;99.90
9564;DHT22;4820;50.870;4.702;2022-09-29T00:39:10;7.70;99.90
9564;DHT22;4820;50.870;4.702;2022-09-29T00:41:37;7.70;99.90
9564;DHT22;4820;50.870;4.702;2022-09-29T00:47:15;7.70;99.90
9564;DHT22;4820;50.870;4.702;2022-09-29T00:49:51;7.70;99.90
9564;DHT22;4820;50.870;4.702;2022-09-29T00:54:51;7.70;99.90
9564;DHT22;4820;50.870;4.702;2022-09-29T00:57:20;7.60;99.90
9564;DHT22;4820;50.870;4.702;2022-09-29T01:00:10;7.50;99.90
9564;DHT22;4820;50.870;4.702;2022-09-29T01:02:39;7.50;99.90
9564;DHT22;4820;50.870;4.702;2022-09-29T01:05:11;7.50;99.90
9564;DHT22;4820;50.870;4.702;2022-09-29T01:07:40;7.50;99.90
9564;DHT22;4820;50.870;4.702;2022-09-29T01:10:07;7.50;99.90
9564;DHT22;4820;50.870;4.702;2022-09-29T01:12:33;7.50;99.90
9564;DHT22;4820;50.870;4.702;2022-09-29T01:14:58;7.40;99.90
9564;DHT22;4820;50.870;4.702;2022-09-29T01:17:25;7.40;99.90
9564;DHT22;4820;50.870;4.702;2022-09-29T01:36:48;7.40;99.90
9564;DHT22;4820;50.870;4.702;2022-09-29T01:42:25;7.40;99.90
9564;DHT22;4820;50.870;4.702;2022-09-29T01:45:09;7.30;99.90
9564;DHT22;4820;50.870;4.702;2022-09-29T01:47:51;7.30;99.90
9564;DHT22;4820;50.870;4.702;2022-09-29T01:50:33;7.30;99.90
9564;DHT22;4820;50.870;4.702;2022-09-29T01:53:08;7.30;99.90
9564;DHT22;4820;50.870;4.702;2022-09-29T01:55:41;7.30;99.90
9564;DHT22;4820;50.870;4.702;2022-09-29T01:58:31;7.30;99.90
9564;DHT22;4820;50.870;4.702;2022-09-29T02:01:01;7.30;99.90
9564;DHT22;4820;50.870;4.702;2022-09-29T02:03:49;7.30;99.90
9564;DHT22;4820;50.870;4.702;2022-09-29T02:06:20;7.30;99.90
9564;DHT22;4820;50.870;4.702;2022-09-29T02:08:56;7.20;99.90
9564;DHT22;4820;50.870;4.702;2022-09-29T02:11:23;7.30;99.90
9564;DHT22;4820;50.870;4.702;2022-09-29T02:13:50;7.20;99.90
9564;DHT22;4820;50.870;4.702;2022-09-29T02:16:22;7.20;99.90
9564;DHT22;4820;50.870;4.702;2022-09-29T02:19:11;7.20;99.90
9564;DHT22;4820;50.870;4.702;2022-09-29T02:21:42;7.10;99.90
9564;DHT22;4820;50.870;4.702;2022-09-29T02:24:09;7.10;99.90
9564;DHT22;4820;50.870;4.702;2022-09-29T02:26:35;7.10;99.90
9564;DHT22;4820;50.870;4.702;2022-09-29T02:29:03;7.20;99.90
9564;DHT22;4820;50.870;4.702;2022-09-29T02:31:30;7.10;99.90
9564;DHT22;4820;50.870;4.702;2022-09-29T02:33:56;7.10;99.90
9564;DHT22;4820;50.870;4.702;2022-09-29T02:36:33;7.10;99.90
9564;DHT22;4820;50.870;4.702;2022-09-29T02:47:50;7.10;99.90
9564;DHT22;4820;50.870;4.702;2022-09-29T02:55:53;7.00;99.90
9564;DHT22;4820;50.870;4.702;2022-09-29T02:58:31;7.00;99.90
9564;DHT22;4820;50.870;4.702;2022-09-29T03:00:59;7.00;99.90
9564;DHT22;4820;50.870;4.702;2022-09-29T03:03:26;7.00;99.90
9564;DHT22;4820;50.870;4.702;2022-09-29T03:05:52;7.00;99.90
9564;DHT22;4820;50.870;4.702;2022-09-29T03:08:18;7.00;99.90
9564;DHT22;4820;50.870;4.702;2022-09-29T03:10:44;7.00;99.90
9564;DHT22;4820;50.870;4.702;2022-09-29T03:13:09;7.00;99.90
9564;DHT22;4820;50.870;4.702;2022-09-29T03:15:35;7.00;99.90
9564;DHT22;4820;50.870;4.702;2022-09-29T03:18:01;7.00;99.90
9564;DHT22;4820;50.870;4.702;2022-09-29T03:20:29;7.00;99.90
9564;DHT22;4820;50.870;4.702;2022-09-29T03:22:55;7.00;99.90
9564;DHT22;4820;50.870;4.702;2022-09-29T03:25:22;7.00;99.90
9564;DHT22;4820;50.870;4.702;2022-09-29T03:27:49;7.00;99.90
9564;DHT22;4820;50.870;4.702;2022-09-29T03:30:16;6.90;99.90
9564;DHT22;4820;50.870;4.702;2022-09-29T03:32:43;6.90;99.90
9564;DHT22;4820;50.870;4.702;2022-09-29T03:35:09;6.80;99.90
9564;DHT22;4820;50.870;4.702;2022-09-29T03:37:35;6.80;99.90
9564;DHT22;4820;50.870;4.702;2022-09-29T03:40:01;6.80;99.90
9564;DHT22;4820;50.870;4.702;2022-09-29T03:42:27;6.80;99.90
9564;DHT22;4820;50.870;4.702;2022-09-29T03:44:53;6.80;99.90
9564;DHT22;4820;50.870;4.702;2022-09-29T03:47:19;6.70;99.90
9564;DHT22;4820;50.870;4.702;2022-09-29T03:49:44;6.70;99.90
9564;DHT22;4820;50.870;4.702;2022-09-29T03:52:10;6.70;99.90
9564;DHT22;4820;50.870;4.702;2022-09-29T03:54:36;6.60;99.90
9564;DHT22;4820;50.870;4.702;2022-09-29T03:57:04;6.60;99.90
9564;DHT22;4820;50.870;4.702;2022-09-29T03:59:31;6.60;99.90
9564;DHT22;4820;50.870;4.702;2022-09-29T04:01:56;6.60;99.90
9564;DHT22;4820;50.870;4.702;2022-09-29T04:04:22;6.60;99.90
9564;DHT22;4820;50.870;4.702;2022-09-29T04:06:48;6.50;99.90
9564;DHT22;4820;50.870;4.702;2022-09-29T04:09:13;6.60;99.90
9564;DHT22;4820;50.870;4.702;2022-09-29T04:11:39;6.60;99.90
9564;DHT22;4820;50.870;4.702;2022-09-29T04:14:05;6.60;99.90
9564;DHT22;4820;50.870;4.702;2022-09-29T04:16:31;6.60;99.90
9564;DHT22;4820;50.870;4.702;2022-09-29T04:18:56;6.60;99.90
9564;DHT22;4820;50.870;4.702;2022-09-29T04:21:22;6.50;99.90
9564;DHT22;4820;50.870;4.702;2022-09-29T04:23:48;6.60;99.90
9564;DHT22;4820;50.870;4.702;2022-09-29T04:26:15;6.60;99.90
9564;DHT22;4820;50.870;4.702;2022-09-29T04:28:40;6.50;99.90
9564;DHT22;4820;50.870;4.702;2022-09-29T04:31:06;6.50;99.90
9564;DHT22;4820;50.870;4.702;2022-09-29T04:33:33;6.50;99.90
9564;DHT22;4820;50.870;4.702;2022-09-29T04:35:58;6.50;99.90
9564;DHT22;4820;50.870;4.702;2022-09-29T04:38:25;6.50;99.90
9564;DHT22;4820;50.870;4.702;2022-09-29T04:40:50;6.50;99.90
9564;DHT22;4820;50.870;4.702;2022-09-29T04:43:17;6.50;99.90
9564;DHT22;4820;50.870;4.702;2022-09-29T04:45:43;6.50;99.90
9564;DHT22;4820;50.870;4.702;2022-09-29T04:48:08;6.50;99.90
9564;DHT22;4820;50.870;4.702;2022-09-29T04:50:34;6.50;99.90
9564;DHT22;4820;50.870;4.702;2022-09-29T04:53:00;6.40;99.90
9564;DHT22;4820;50.870;4.702;2022-09-29T04:55:26;6.40;99.90
9564;DHT22;4820;50.870;4.702;2022-09-29T04:57:52;6.40;99.90
9564;DHT22;4820;50.870;4.702;2022-09-29T05:00:18;6.40;99.90
9564;DHT22;4820;50.870;4.702;2022-09-29T05:02:43;6.40;99.90
9564;DHT22;4820;50.870;4.702;2022-09-29T05:05:10;6.30;99.90
9564;DHT22;4820;50.870;4.702;2022-09-29T05:07:37;6.30;99.90
9564;DHT22;4820;50.870;4.702;2022-09-29T05:10:05;6.30;99.90
9564;DHT22;4820;50.870;4.702;2022-09-29T05:12:31;6.30;99.90
9564;DHT22;4820;50.870;4.702;2022-09-29T05:14:57;6.30;99.90
9564;DHT22;4820;50.870;4.702;2022-09-29T05:17:23;6.30;99.90
9564;DHT22;4820;50.870;4.702;2022-09-29T05:19:49;6.30;99.90
9564;DHT22;4820;50.870;4.702;2022-09-29T05:22:15;6.40;99.90
9564;DHT22;4820;50.870;4.702;2022-09-29T05:24:40;6.40;99.90
9564;DHT22;4820;50.870;4.702;2022-09-29T05:27:06;6.40;99.90
9564;DHT22;4820;50.870;4.702;2022-09-29T05:29:32;6.40;99.90
9564;DHT22;4820;50.870;4.702;2022-09-29T05:31:59;6.40;99.90
9564;DHT22;4820;50.870;4.702;2022-09-29T05:34:25;6.30;99.90
9564;DHT22;4820;50.870;4.702;2022-09-29T05:36:51;6.30;99.90
9564;DHT22;4820;50.870;4.702;2022-09-29T05:39:16;6.30;99.90
9564;DHT22;4820;50.870;4.702;2022-09-29T05:41:45;6.30;99.90
9564;DHT22;4820;50.870;4.702;2022-09-29T05:44:12;6.20;99.90
9564;DHT22;4820;50.870;4.702;2022-09-29T05:46:38;6.20;99.90
9564;DHT22;4820;50.870;4.702;2022-09-29T05:49:04;6.20;99.90
9564;DHT22;4820;50.870;4.702;2022-09-29T05:51:29;6.30;99.90
9564;DHT22;4820;50.870;4.702;2022-09-29T05:53:55;6.30;99.90
9564;DHT22;4820;50.870;4.702;2022-09-29T05:56:23;6.30;99.90
9564;DHT22;4820;50.870;4.702;2022-09-29T05:58:49;6.30;99.90
9564;DHT22;4820;50.870;4.702;2022-09-29T06:01:21;6.30;99.90
9564;DHT22;4820;50.870;4.702;2022-09-29T06:03:48;6.30;99.90
9564;DHT22;4820;50.870;4.702;2022-09-29T06:06:18;6.40;99.90
9564;DHT22;4820;50.870;4.702;2022-09-29T06:08:46;6.40;99.90
9564;DHT22;4820;50.870;4.702;2022-09-29T06:11:21;6.40;99.90
9564;DHT22;4820;50.870;4.702;2022-09-29T06:13:51;6.40;99.90
9564;DHT22;4820;50.870;4.702;2022-09-29T06:16:23;6.40;99.90
9564;DHT22;4820;50.870;4.702;2022-09-29T06:18:50;6.40;99.90
9564;DHT22;4820;50.870;4.702;2022-09-29T06:21:19;6.40;99.90
9564;DHT22;4820;50.870;4.702;2022-09-29T06:23:46;6.40;99.90
9564;DHT22;4820;50.870;4.702;2022-09-29T06:26:13;6.40;99.90
9564;DHT22;4820;50.870;4.702;2022-09-29T06:28:40;6.30;99.90
9564;DHT22;4820;50.870;4.702;2022-09-29T06:31:18;6.40;99.90
9564;DHT22;4820;50.870;4.702;2022-09-29T06:33:44;6.40;99.90
9564;DHT22;4820;50.870;4.702;2022-09-29T06:36:17;6.50;99.90
9564;DHT22;4820;50.870;4.702;2022-09-29T06:39:03;6.50;99.90
9564;DHT22;4820;50.870;4.702;2022-09-29T06:41:29;6.60;99.90
9564;DHT22;4820;50.870;4.702;2022-09-29T06:43:55;6.60;99.90
9564;DHT22;4820;50.870;4.702;2022-09-29T06:46:21;6.70;99.90
9564;DHT22;4820;50.870;4.702;2022-09-29T06:48:48;6.80;99.90
9564;DHT22;4820;50.870;4.702;2022-09-29T06:51:13;6.80;99.90
9564;DHT22;4820;50.870;4.702;2022-09-29T06:53:40;6.90;99.90
9564;DHT22;4820;50.870;4.702;2022-09-29T06:56:05;6.90;99.90
9564;DHT22;4820;50.870;4.702;2022-09-29T06:58:31;7.00;99.90
9564;DHT22;4820;50.870;4.702;2022-09-29T07:01:02;7.10;99.90
9564;DHT22;4820;50.870;4.702;2022-09-29T07:03:31;7.20;99.90
9564;DHT22;4820;50.870;4.702;2022-09-29T07:06:01;7.20;99.90
9564;DHT22;4820;50.870;4.702;2022-09-29T07:08:28;7.30;99.90
9564;DHT22;4820;50.870;4.702;2022-09-29T07:10:53;7.30;99.90
9564;DHT22;4820;50.870;4.702;2022-09-29T07:13:20;7.40;99.90
9564;DHT22;4820;50.870;4.702;2022-09-29T07:15:46;7.50;99.90
9564;DHT22;4820;50.870;4.702;2022-09-29T07:18:13;7.50;99.90
9564;DHT22;4820;50.870;4.702;2022-09-29T07:20:38;7.60;99.90
9564;DHT22;4820;50.870;4.702;2022-09-29T07:23:06;7.60;99.90
9564;DHT22;4820;50.870;4.702;2022-09-29T07:25:33;7.70;99.90
9564;DHT22;4820;50.870;4.702;2022-09-29T07:27:59;7.80;99.90
9564;DHT22;4820;50.870;4.702;2022-09-29T07:30:25;7.80;99.90
9564;DHT22;4820;50.870;4.702;2022-09-29T07:32:56;7.80;99.90
9564;DHT22;4820;50.870;4.702;2022-09-29T07:35:22;7.90;99.90
9564;DHT22;4820;50.870;4.702;2022-09-29T07:37:53;8.00;99.90
9564;DHT22;4820;50.870;4.702;2022-09-29T07:40:20;8.10;99.90
9564;DHT22;4820;50.870;4.702;2022-09-29T07:42:47;8.20;99.90
9564;DHT22;4820;50.870;4.702;2022-09-29T07:45:15;8.30;99.90
9564;DHT22;4820;50.870;4.702;2022-09-29T07:47:41;8.30;99.90
9564;DHT22;4820;50.870;4.702;2022-09-29T07:50:07;8.40;99.90
9564;DHT22;4820;50.870;4.702;2022-09-29T07:52:34;8.40;99.90
9564;DHT22;4820;50.870;4.702;2022-09-29T07:55:00;8.40;99.90
9564;DHT22;4820;50.870;4.702;2022-09-29T07:57:25;8.50;99.90
9564;DHT22;4820;50.870;4.702;2022-09-29T07:59:51;8.60;99.90
9564;DHT22;4820;50.870;4.702;2022-09-29T08:02:19;8.70;99.90
9564;DHT22;4820;50.870;4.702;2022-09-29T08:04:45;8.80;99.90
9564;DHT22;4820;50.870;4.702;2022-09-29T08:07:11;8.90;99.90
9564;DHT22;4820;50.870;4.702;2022-09-29T08:09:36;9.00;99.90
9564;DHT22;4820;50.870;4.702;2022-09-29T08:12:02;9.00;99.90
9564;DHT22;4820;50.870;4.702;2022-09-29T08:14:28;9.10;99.90
9564;DHT22;4820;50.870;4.702;2022-09-29T08:16:53;9.20;99.90
9564;DHT22;4820;50.870;4.702;2022-09-29T08:19:20;9.30;99.90
9564;DHT22;4820;50.870;4.702;2022-09-29T08:21:46;9.30;99.90
9564;DHT22;4820;50.870;4.702;2022-09-29T08:24:14;9.40;99.90
9564;DHT22;4820;50.870;4.702;2022-09-29T08:26:42;9.50;99.90
9564;DHT22;4820;50.870;4.702;2022-09-29T08:29:09;9.60;99.90
9564;DHT22;4820;50.870;4.702;2022-09-29T08:31:37;9.70;99.90
9564;DHT22;4820;50.870;4.702;2022-09-29T08:34:04;9.80;99.90
9564;DHT22;4820;50.870;4.702;2022-09-29T08:36:30;9.90;99.90
9564;DHT22;4820;50.870;4.702;2022-09-29T08:38:59;10.00;99.90
9564;DHT22;4820;50.870;4.702;2022-09-29T08:49:41;10.40;99.90
9564;DHT22;4820;50.870;4.702;2022-09-29T08:52:15;10.50;99.90
9564;DHT22;4820;50.870;4.702;2022-09-29T08:54:44;10.60;99.90
9564;DHT22;4820;50.870;4.702;2022-09-29T08:57:15;10.70;99.90
9564;DHT22;4820;50.870;4.702;2022-09-29T08:59:56;10.80;99.90
9564;DHT22;4820;50.870;4.702;2022-09-29T09:13:09;11.10;99.90
9564;DHT22;4820;50.870;4.702;2022-09-29T09:18:36;11.30;99.90
9564;DHT22;4820;50.870;4.702;2022-09-29T09:21:08;11.40;99.90
9564;DHT22;4820;50.870;4.702;2022-09-29T09:23:45;11.40;99.90
9564;DHT22;4820;50.870;4.702;2022-09-29T09:26:12;11.50;99.90
9564;DHT22;4820;50.870;4.702;2022-09-29T09:28:51;11.60;99.90
9564;DHT22;4820;50.870;4.702;2022-09-29T09:31:53;11.70;99.90
9564;DHT22;4820;50.870;4.702;2022-09-29T09:36:54;11.90;99.90
9564;DHT22;4820;50.870;4.702;2022-09-29T09:39:28;12.00;99.90
9564;DHT22;4820;50.870;4.702;2022-09-29T09:41:57;12.10;99.90
9564;DHT22;4820;50.870;4.702;2022-09-29T09:44:45;12.20;99.90
9564;DHT22;4820;50.870;4.702;2022-09-29T09:49:48;12.40;99.90
9564;DHT22;4820;50.870;4.702;2022-09-29T09:55:17;12.50;99.90
9564;DHT22;4820;50.870;4.702;2022-09-29T09:57:46;12.60;99.90
9564;DHT22;4820;50.870;4.702;2022-09-29T10:00:22;12.70;99.90
9564;DHT22;4820;50.870;4.702;2022-09-29T10:02:53;12.80;99.90
9564;DHT22;4820;50.870;4.702;2022-09-29T10:05:22;12.90;99.90
9564;DHT22;4820;50.870;4.702;2022-09-29T10:07:52;13.00;99.90
9564;DHT22;4820;50.870;4.702;2022-09-29T10:10:25;13.10;99.90
9564;DHT22;4820;50.870;4.702;2022-09-29T10:13:04;13.10;99.90
9564;DHT22;4820;50.870;4.702;2022-09-29T10:15:37;13.20;99.90
9564;DHT22;4820;50.870;4.702;2022-09-29T10:18:21;13.30;99.90
9564;DHT22;4820;50.870;4.702;2022-09-29T10:20:47;13.30;99.90
9564;DHT22;4820;50.870;4.702;2022-09-29T10:23:34;13.40;99.90
9564;DHT22;4820;50.870;4.702;2022-09-29T10:26:06;13.50;99.90
9564;DHT22;4820;50.870;4.702;2022-09-29T10:28:40;13.70;99.90
9564;DHT22;4820;50.870;4.702;2022-09-29T10:31:28;13.80;99.90
9564;DHT22;4820;50.870;4.702;2022-09-29T10:34:22;13.80;99.90
9564;DHT22;4820;50.870;4.702;2022-09-29T10:37:00;13.90;99.90
9564;DHT22;4820;50.870;4.702;2022-09-29T10:39:42;13.90;99.90
9564;DHT22;4820;50.870;4.702;2022-09-29T10:42:25;14.10;99.90
9564;DHT22;4820;50.870;4.702;2022-09-29T10:44:59;14.10;99.90
9564;DHT22;4820;50.870;4.702;2022-09-29T10:47:25;14.30;99.90
9564;DHT22;4820;50.870;4.702;2022-09-29T10:52:52;14.40;99.90
9564;DHT22;4820;50.870;4.702;2022-09-29T10:55:30;14.60;99.90
9564;DHT22;4820;50.870;4.702;2022-09-29T10:58:02;14.70;99.90
9564;DHT22;4820;50.870;4.702;2022-09-29T11:00:38;14.70;99.90
9564;DHT22;4820;50.870;4.702;2022-09-29T11:03:24;14.80;99.90
9564;DHT22;4820;50.870;4.702;2022-09-29T11:06:10;14.80;99.90
9564;DHT22;4820;50.870;4.702;2022-09-29T11:09:06;14.90;99.90
9564;DHT22;4820;50.870;4.702;2022-09-29T11:11:36;15.00;99.90
9564;DHT22;4820;50.870;4.702;2022-09-29T11:14:03;15.10;99.90
9564;DHT22;4820;50.870;4.702;2022-09-29T11:16:34;15.30;99.90
9564;DHT22;4820;50.870;4.702;2022-09-29T11:19:04;15.60;99.90
9564;DHT22;4820;50.870;4.702;2022-09-29T11:28:07;15.30;99.90
9564;DHT22;4820;50.870;4.702;2022-09-29T11:30:14;15.30;99.90
9564;DHT22;4820;50.870;4.702;2022-09-29T11:43:54;17.00;99.90
9564;DHT22;4820;50.870;4.702;2022-09-29T11:51:54;17.70;99.90
9564;DHT22;4820;50.870;4.702;2022-09-29T12:00:09;17.90;99.90
9564;DHT22;4820;50.870;4.702;2022-09-29T12:08:31;17.60;99.90
9564;DHT22;4820;50.870;4.702;2022-09-29T12:11:15;17.40;99.90
9564;DHT22;4820;50.870;4.702;2022-09-29T12:14:02;17.20;99.90
9564;DHT22;4820;50.870;4.702;2022-09-29T12:16:34;17.00;99.90
9564;DHT22;4820;50.870;4.702;2022-09-29T12:19:13;16.80;99.90
9564;DHT22;4820;50.870;4.702;2022-09-29T12:21:44;16.50;99.90
9564;DHT22;4820;50.870;4.702;2022-09-29T12:24:31;16.30;99.90
9564;DHT22;4820;50.870;4.702;2022-09-29T12:27:01;16.00;99.90
9564;DHT22;4820;50.870;4.702;2022-09-29T12:29:36;15.80;99.90
9564;DHT22;4820;50.870;4.702;2022-09-29T12:32:10;15.60;99.90
9564;DHT22;4820;50.870;4.702;2022-09-29T12:34:50;15.40;99.90
9564;DHT22;4820;50.870;4.702;2022-09-29T12:40:08;15.30;99.90
9564;DHT22;4820;50.870;4.702;2022-09-29T12:56:29;15.50;99.90
9564;DHT22;4820;50.870;4.702;2022-09-29T12:59:08;15.30;99.90
9564;DHT22;4820;50.870;4.702;2022-09-29T13:01:37;15.30;99.90
9564;DHT22;4820;50.870;4.702;2022-09-29T13:28:40;15.50;99.90
9564;DHT22;4820;50.870;4.702;2022-09-29T13:31:11;15.70;99.90
9564;DHT22;4820;50.870;4.702;2022-09-29T13:33:39;15.90;99.90
9564;DHT22;4820;50.870;4.702;2022-09-29T13:36:07;16.10;99.90
9564;DHT22;4820;50.870;4.702;2022-09-29T13:38:36;16.20;99.90
9564;DHT22;4820;50.870;4.702;2022-09-29T13:46:36;16.20;99.90
9564;DHT22;4820;50.870;4.702;2022-09-29T13:54:44;16.50;99.90
9564;DHT22;4820;50.870;4.702;2022-09-29T13:57:22;16.80;99.90
9564;DHT22;4820;50.870;4.702;2022-09-29T14:04:54;17.50;99.90
9564;DHT22;4820;50.870;4.702;2022-09-29T14:07:39;17.50;99.90
9564;DHT22;4820;50.870;4.702;2022-09-29T14:10:31;17.40;99.90
9564;DHT22;4820;50.870;4.702;2022-09-29T14:13:06;17.20;99.90
9564;DHT22;4820;50.870;4.702;2022-09-29T14:15:40;17.00;99.90
9564;DHT22;4820;50.870;4.702;2022-09-29T14:21:03;16.70;99.90
9564;DHT22;4820;50.870;4.702;2022-09-29T14:29:24;16.40;99.90
9564;DHT22;4820;50.870;4.702;2022-09-29T14:31:55;16.40;99.90
9564;DHT22;4820;50.870;4.702;2022-09-29T14:34:25;16.30;99.90
9564;DHT22;4820;50.870;4.702;2022-09-29T14:36:53;16.20;99.90
9564;DHT22;4820;50.870;4.702;2022-09-29T14:39:20;16.20;99.90
9564;DHT22;4820;50.870;4.702;2022-09-29T14:41:47;16.20;99.90
9564;DHT22;4820;50.870;4.702;2022-09-29T14:44:24;16.30;99.90
9564;DHT22;4820;50.870;4.702;2022-09-29T14:47:02;16.30;99.90
9564;DHT22;4820;50.870;4.702;2022-09-29T14:50:02;16.30;99.90
9564;DHT22;4820;50.870;4.702;2022-09-29T15:01:15;16.40;99.90
9564;DHT22;4820;50.870;4.702;2022-09-29T15:03:46;16.50;99.90
9564;DHT22;4820;50.870;4.702;2022-09-29T15:06:16;16.50;99.90
9564;DHT22;4820;50.870;4.702;2022-09-29T15:08:56;16.60;99.90
9564;DHT22;4820;50.870;4.702;2022-09-29T15:11:36;16.60;99.90
9564;DHT22;4820;50.870;4.702;2022-09-29T15:28:08;16.40;99.90
9564;DHT22;4820;50.870;4.702;2022-09-29T15:30:35;16.30;99.90
9564;DHT22;4820;50.870;4.702;2022-09-29T15:33:14;16.20;99.90
9564;DHT22;4820;50.870;4.702;2022-09-29T15:35:42;16.20;99.90
9564;DHT22;4820;50.870;4.702;2022-09-29T15:38:16;16.10;99.90
9564;DHT22;4820;50.870;4.702;2022-09-29T15:40:43;16.10;99.90
9564;DHT22;4820;50.870;4.702;2022-09-29T15:43:25;16.10;99.90
9564;DHT22;4820;50.870;4.702;2022-09-29T15:45:58;16.00;99.90
9564;DHT22;4820;50.870;4.702;2022-09-29T15:48:28;16.00;99.90
9564;DHT22;4820;50.870;4.702;2022-09-29T15:50:55;16.00;99.90
9564;DHT22;4820;50.870;4.702;2022-09-29T15:53:25;16.00;99.90
9564;DHT22;4820;50.870;4.702;2022-09-29T15:55:52;15.90;99.90
9564;DHT22;4820;50.870;4.702;2022-09-29T16:01:07;15.80;99.90
9564;DHT22;4820;50.870;4.702;2022-09-29T16:03:54;15.80;99.90
9564;DHT22;4820;50.870;4.702;2022-09-29T16:06:28;15.80;99.90
9564;DHT22;4820;50.870;4.702;2022-09-29T16:08:58;15.80;99.90
9564;DHT22;4820;50.870;4.702;2022-09-29T16:11:37;15.70;99.90
9564;DHT22;4820;50.870;4.702;2022-09-29T16:14:18;15.60;99.90
9564;DHT22;4820;50.870;4.702;2022-09-29T16:16:47;15.60;99.90
9564;DHT22;4820;50.870;4.702;2022-09-29T16:19:23;15.50;99.90
9564;DHT22;4820;50.870;4.702;2022-09-29T16:21:53;15.40;99.90
9564;DHT22;4820;50.870;4.702;2022-09-29T16:24:20;15.30;99.90
9564;DHT22;4820;50.870;4.702;2022-09-29T16:26:54;15.30;99.90
9564;DHT22;4820;50.870;4.702;2022-09-29T16:29:34;15.10;99.90
9564;DHT22;4820;50.870;4.702;2022-09-29T16:33:20;15.00;99.90
9564;DHT22;4820;50.870;4.702;2022-09-29T16:40:52;14.80;99.90
9564;DHT22;4820;50.870;4.702;2022-09-29T16:43:27;14.70;99.90
9564;DHT22;4820;50.870;4.702;2022-09-29T16:45:56;14.60;99.90
9564;DHT22;4820;50.870;4.702;2022-09-29T16:48:25;14.60;99.90
9564;DHT22;4820;50.870;4.702;2022-09-29T16:50:55;14.50;99.90
9564;DHT22;4820;50.870;4.702;2022-09-29T16:53:30;14.50;99.90
9564;DHT22;4820;50.870;4.702;2022-09-29T16:56:01;14.40;99.90
9564;DHT22;4820;50.870;4.702;2022-09-29T16:58:28;14.40;99.90
9564;DHT22;4820;50.870;4.702;2022-09-29T17:00:54;14.40;99.90
9564;DHT22;4820;50.870;4.702;2022-09-29T17:03:20;14.30;99.90
9564;DHT22;4820;50.870;4.702;2022-09-29T17:05:46;14.30;99.90
9564;DHT22;4820;50.870;4.702;2022-09-29T17:08:25;14.20;99.90
9564;DHT22;4820;50.870;4.702;2022-09-29T17:10:54;14.20;99.90
9564;DHT22;4820;50.870;4.702;2022-09-29T17:13:20;14.00;99.90
9564;DHT22;4820;50.870;4.702;2022-09-29T17:15:50;14.00;99.90
9564;DHT22;4820;50.870;4.702;2022-09-29T17:18:17;13.90;99.90
9564;DHT22;4820;50.870;4.702;2022-09-29T17:20:43;13.80;99.90
9564;DHT22;4820;50.870;4.702;2022-09-29T17:23:10;13.70;99.90
9564;DHT22;4820;50.870;4.702;2022-09-29T17:25:38;13.70;99.90
9564;DHT22;4820;50.870;4.702;2022-09-29T17:28:15;13.70;99.90
9564;DHT22;4820;50.870;4.702;2022-09-29T17:30:43;13.60;99.90
9564;DHT22;4820;50.870;4.702;2022-09-29T17:33:11;13.50;99.90
9564;DHT22;4820;50.870;4.702;2022-09-29T17:35:50;13.50;99.90
9564;DHT22;4820;50.870;4.702;2022-09-29T17:38:16;13.40;99.90
9564;DHT22;4820;50.870;4.702;2022-09-29T17:40:55;13.40;99.90
9564;DHT22;4820;50.870;4.702;2022-09-29T17:43:21;13.30;99.90
9564;DHT22;4820;50.870;4.702;2022-09-29T17:45:51;13.30;99.90
9564;DHT22;4820;50.870;4.702;2022-09-29T17:48:19;13.20;99.90
9564;DHT22;4820;50.870;4.702;2022-09-29T17:50:46;13.20;99.90
9564;DHT22;4820;50.870;4.702;2022-09-29T17:53:14;13.10;99.90
9564;DHT22;4820;50.870;4.702;2022-09-29T17:55:41;13.10;99.90
9564;DHT22;4820;50.870;4.702;2022-09-29T17:58:11;13.00;99.90
9564;DHT22;4820;50.870;4.702;2022-09-29T18:00:41;12.90;99.90
9564;DHT22;4820;50.870;4.702;2022-09-29T18:03:09;12.90;99.90
9564;DHT22;4820;50.870;4.702;2022-09-29T18:05:38;12.90;99.90
9564;DHT22;4820;50.870;4.702;2022-09-29T18:08:05;12.80;99.90
9564;DHT22;4820;50.870;4.702;2022-09-29T18:10:36;12.70;99.90
9564;DHT22;4820;50.870;4.702;2022-09-29T18:13:08;12.70;99.90
9564;DHT22;4820;50.870;4.702;2022-09-29T18:15:34;12.60;99.90
9564;DHT22;4820;50.870;4.702;2022-09-29T18:18:02;12.60;99.90
9564;DHT22;4820;50.870;4.702;2022-09-29T18:20:31;12.50;99.90
9564;DHT22;4820;50.870;4.702;2022-09-29T18:22:58;12.50;99.90
9564;DHT22;4820;50.870;4.702;2022-09-29T18:25:26;12.40;99.90
9564;DHT22;4820;50.870;4.702;2022-09-29T18:27:54;12.40;99.90
9564;DHT22;4820;50.870;4.702;2022-09-29T18:30:32;12.40;99.90
9564;DHT22;4820;50.870;4.702;2022-09-29T18:32:59;12.30;99.90
9564;DHT22;4820;50.870;4.702;2022-09-29T18:35:31;12.20;99.90
9564;DHT22;4820;50.870;4.702;2022-09-29T18:37:58;12.20;99.90
9564;DHT22;4820;50.870;4.702;2022-09-29T18:40:25;12.10;99.90
9564;DHT22;4820;50.870;4.702;2022-09-29T18:42:51;12.10;99.90
9564;DHT22;4820;50.870;4.702;2022-09-29T18:45:29;12.00;99.90
9564;DHT22;4820;50.870;4.702;2022-09-29T18:47:57;12.00;99.90
9564;DHT22;4820;50.870;4.702;2022-09-29T18:50:25;12.10;99.90
9564;DHT22;4820;50.870;4.702;2022-09-29T18:52:52;12.10;99.90
9564;DHT22;4820;50.870;4.702;2022-09-29T18:55:20;12.10;99.90
9564;DHT22;4820;50.870;4.702;2022-09-29T18:57:48;12.00;99.90
9564;DHT22;4820;50.870;4.702;2022-09-29T19:00:16;12.00;99.90
9564;DHT22;4820;50.870;4.702;2022-09-29T19:02:44;12.00;99.90
9564;DHT22;4820;50.870;4.702;2022-09-29T19:05:22;12.00;99.90
9564;DHT22;4820;50.870;4.702;2022-09-29T19:07:54;11.90;99.90
9564;DHT22;4820;50.870;4.702;2022-09-29T19:10:20;11.90;99.90
9564;DHT22;4820;50.870;4.702;2022-09-29T19:12:48;11.80;99.90
9564;DHT22;4820;50.870;4.702;2022-09-29T19:15:19;11.80;99.90
9564;DHT22;4820;50.870;4.702;2022-09-29T19:17:46;11.80;99.90
9564;DHT22;4820;50.870;4.702;2022-09-29T19:20:13;11.70;99.90
9564;DHT22;4820;50.870;4.702;2022-09-29T19:22:40;11.70;99.90
9564;DHT22;4820;50.870;4.702;2022-09-29T19:25:15;11.60;99.90
9564;DHT22;4820;50.870;4.702;2022-09-29T19:27:44;11.40;99.90
9564;DHT22;4820;50.870;4.702;2022-09-29T19:30:12;11.30;99.90
9564;DHT22;4820;50.870;4.702;2022-09-29T19:32:38;11.20;99.90
9564;DHT22;4820;50.870;4.702;2022-09-29T19:35:06;11.10;99.90
9564;DHT22;4820;50.870;4.702;2022-09-29T19:37:32;11.10;99.90
9564;DHT22;4820;50.870;4.702;2022-09-29T19:39:59;11.10;99.90
9564;DHT22;4820;50.870;4.702;2022-09-29T19:42:25;11.10;99.90
9564;DHT22;4820;50.870;4.702;2022-09-29T19:44:53;11.10;99.90
9564;DHT22;4820;50.870;4.702;2022-09-29T19:47:19;11.10;99.90
9564;DHT22;4820;50.870;4.702;2022-09-29T19:49:44;11.10;99.90
9564;DHT22;4820;50.870;4.702;2022-09-29T19:52:10;11.20;99.90